createdAt,value
2019-03-30T00:02:15.352Z,57.10
2019-03-30T00:04:49.949Z,62.17
2019-03-30T00:07:24.562Z,54.88
2019-03-30T00:09:58.939Z,61.08
2019-03-30T00:12:33.391Z,56.02
2019-03-30T00:15:08.209Z,59.88
2019-03-30T00:17:42.644Z,56.45
2019-03-30T00:20:17.127Z,57.05
2019-03-30T00:22:51.886Z,59.77
2019-03-30T00:25:26.296Z,59.58
2019-03-30T00:28:04.048Z,55.48
2019-03-30T00:30:39.490Z,54.73
2019-03-30T00:33:13.946Z,54.40
2019-03-30T00:35:48.450Z,57.53
2019-03-30T00:38:23.177Z,61.75
2019-03-30T00:40:57.603Z,58.70
2019-03-30T00:43:32.000Z,61.95
2019-03-30T00:46:06.599Z,61.23
2019-03-30T00:48:41.018Z,57.67
2019-03-30T00:51:15.424Z,61.02
2019-03-30T00:53:49.940Z,60.98
2019-03-30T00:56:24.855Z,59.42
2019-03-30T00:58:59.627Z,61.95
2019-03-30T01:01:33.991Z,62.27
2019-03-30T01:04:08.343Z,66.12
2019-03-30T01:06:43.010Z,63.75
2019-03-30T01:09:17.339Z,64.87
2019-03-30T01:11:51.791Z,59.73
2019-03-30T01:14:26.414Z,62.00
2019-03-30T01:17:00.858Z,65.20
2019-03-30T01:19:35.352Z,55.52
2019-03-30T01:22:10.093Z,62.90
2019-03-30T01:24:47.192Z,60.33
2019-03-30T01:27:21.622Z,64.15
2019-03-30T01:29:56.086Z,64.55
2019-03-30T01:32:30.644Z,67.05
2019-03-30T01:35:05.288Z,71.87
2019-03-30T01:37:40.287Z,83.72
2019-03-30T01:40:15.133Z,69.60
2019-03-30T01:42:49.744Z,61.73
2019-03-30T01:45:25.257Z,73.42
2019-03-30T01:47:59.692Z,62.80
2019-03-30T01:50:34.005Z,77.50
2019-03-30T01:53:08.428Z,79.17
2019-03-30T01:55:43.107Z,69.62
2019-03-30T01:58:17.587Z,69.12
2019-03-30T02:00:52.032Z,69.87
2019-03-30T02:03:26.376Z,71.00
2019-03-30T02:06:00.750Z,86.42
2019-03-30T02:08:35.430Z,76.85
2019-03-30T02:11:09.846Z,77.40
2019-03-30T02:13:44.239Z,85.90
2019-03-30T02:16:18.900Z,75.05
2019-03-30T02:18:53.245Z,84.55
2019-03-30T02:21:27.702Z,85.45
2019-03-30T02:24:02.392Z,82.92
2019-03-30T02:26:36.697Z,76.92
2019-03-30T02:29:11.483Z,84.92
2019-03-30T02:31:45.933Z,78.22
2019-03-30T02:34:21.574Z,79.47
2019-03-30T02:36:56.067Z,100.55
2019-03-30T02:39:30.713Z,98.07
2019-03-30T02:42:05.356Z,111.83
2019-03-30T02:44:39.830Z,108.60
2019-03-30T02:47:14.361Z,76.85
2019-03-30T02:49:49.490Z,81.32
2019-03-30T02:52:23.869Z,75.20
2019-03-30T02:54:58.399Z,75.45
2019-03-30T02:57:32.823Z,71.85
2019-03-30T03:00:10.715Z,71.62
2019-03-30T03:02:45.188Z,77.10
2019-03-30T03:05:19.999Z,73.07
2019-03-30T03:07:54.501Z,74.00
2019-03-30T03:10:29.284Z,78.60
2019-03-30T03:13:03.827Z,76.92
2019-03-30T03:15:38.370Z,76.42
2019-03-30T03:18:13.992Z,81.95
2019-03-30T03:21:06.125Z,79.15
2019-03-30T03:23:25.616Z,89.00
2019-03-30T03:26:00.196Z,80.53
2019-03-30T03:28:34.710Z,73.57
2019-03-30T03:31:09.073Z,82.25
2019-03-30T03:33:43.495Z,75.50
2019-03-30T03:36:18.151Z,76.90
2019-03-30T03:38:52.554Z,95.32
2019-03-30T03:41:26.985Z,90.62
2019-03-30T03:44:01.408Z,84.75
2019-03-30T03:46:36.075Z,86.92
2019-03-30T03:49:10.415Z,96.60
2019-03-30T03:51:45.666Z,101.05
2019-03-30T03:54:20.371Z,93.62
2019-03-30T03:56:55.072Z,104.65
2019-03-30T03:59:31.413Z,84.72
2019-03-30T04:02:07.238Z,88.62
2019-03-30T04:04:47.087Z,93.30
2019-03-30T04:07:20.276Z,81.28
2019-03-30T04:09:57.955Z,87.90
2019-03-30T04:12:34.519Z,84.97
2019-03-30T04:15:10.079Z,83.50
2019-03-30T04:17:44.387Z,82.65
2019-03-30T04:20:23.179Z,84.90
2019-03-30T04:22:58.143Z,85.60
2019-03-30T04:25:32.576Z,85.40
2019-03-30T04:28:07.160Z,81.20
2019-03-30T04:30:41.663Z,83.92
2019-03-30T04:33:16.422Z,80.12
2019-03-30T04:35:50.934Z,84.72
2019-03-30T04:38:25.532Z,89.13
2019-03-30T04:41:00.164Z,83.22
2019-03-30T04:43:34.779Z,82.97
2019-03-30T04:46:09.166Z,80.35
2019-03-30T04:48:43.893Z,77.85
2019-03-30T04:51:18.629Z,74.72
2019-03-30T04:53:54.141Z,81.15
2019-03-30T04:56:28.499Z,78.87
2019-03-30T04:59:03.087Z,80.07
2019-03-30T05:01:37.522Z,79.82
2019-03-30T05:04:12.363Z,77.67
2019-03-30T05:06:46.769Z,81.02
2019-03-30T05:09:21.445Z,78.90
2019-03-30T05:11:55.842Z,76.00
2019-03-30T05:14:30.233Z,77.05
2019-03-30T05:17:04.884Z,80.05
2019-03-30T05:19:39.446Z,75.67
2019-03-30T05:22:16.605Z,77.12
2019-03-30T05:24:50.168Z,75.25
2019-03-30T05:27:24.856Z,78.62
2019-03-30T05:29:59.260Z,78.02
2019-03-30T05:32:33.742Z,78.25
2019-03-30T05:35:08.230Z,76.33
2019-03-30T05:37:42.856Z,74.72
2019-03-30T05:40:18.567Z,70.80
2019-03-30T05:42:53.239Z,74.32
2019-03-30T05:45:27.844Z,73.70
2019-03-30T05:48:02.435Z,73.02
2019-03-30T05:50:36.968Z,72.85
2019-03-30T05:53:11.550Z,74.60
2019-03-30T05:55:46.111Z,72.97
2019-03-30T05:58:20.833Z,70.97
2019-03-30T06:00:55.060Z,70.78
2019-03-30T06:03:29.449Z,70.70
2019-03-30T06:06:03.793Z,71.10
2019-03-30T06:08:39.637Z,67.75
2019-03-30T06:11:14.113Z,75.45
2019-03-30T06:13:49.589Z,64.67
2019-03-30T06:16:26.870Z,68.90
2019-03-30T06:19:01.162Z,69.30
2019-03-30T06:21:36.017Z,74.92
2019-03-30T06:24:10.476Z,66.40
2019-03-30T06:26:44.872Z,64.30
2019-03-30T06:29:19.443Z,69.27
2019-03-30T06:31:54.065Z,66.10
2019-03-30T06:34:28.593Z,71.07
2019-03-30T06:37:03.145Z,69.20
2019-03-30T06:39:39.979Z,63.65
2019-03-30T06:42:14.240Z,57.98
2019-03-30T06:44:48.668Z,61.55
2019-03-30T06:47:23.456Z,67.27
2019-03-30T06:49:57.915Z,62.98
2019-03-30T06:52:33.032Z,63.75
2019-03-30T06:55:07.855Z,62.78
2019-03-30T06:57:42.450Z,63.55
2019-03-30T07:00:17.787Z,61.08
2019-03-30T07:02:52.193Z,59.93
2019-03-30T07:05:26.834Z,64.37
2019-03-30T07:08:02.679Z,58.83
2019-03-30T07:10:38.467Z,61.30
2019-03-30T07:13:13.822Z,64.75
2019-03-30T07:15:51.824Z,57.17
2019-03-30T07:18:26.391Z,54.90
2019-03-30T07:21:00.958Z,60.23
2019-03-30T07:23:35.680Z,60.33
2019-03-30T07:26:10.131Z,56.30
2019-03-30T07:28:47.062Z,58.40
2019-03-30T07:31:20.710Z,62.10
2019-03-30T07:33:56.027Z,59.75
2019-03-30T07:36:30.496Z,56.02
2019-03-30T07:39:05.280Z,69.27
2019-03-30T07:41:39.913Z,56.35
2019-03-30T07:44:15.782Z,59.27
2019-03-30T07:46:50.210Z,64.97
2019-03-30T07:49:24.770Z,58.38
2019-03-30T07:51:59.673Z,55.67
2019-03-30T07:54:34.086Z,57.27
2019-03-30T07:57:16.784Z,52.65
2019-03-30T07:59:45.979Z,53.85
2019-03-30T08:02:22.088Z,52.98
2019-03-30T08:04:59.359Z,55.75
2019-03-30T08:07:33.682Z,52.40
2019-03-30T08:10:08.705Z,55.88
2019-03-30T08:12:43.209Z,49.65
2019-03-30T08:15:18.608Z,55.10
2019-03-30T08:17:53.049Z,50.65
2019-03-30T08:20:29.089Z,50.40
2019-03-30T08:23:03.439Z,53.65
2019-03-30T08:25:38.038Z,51.75
2019-03-30T08:28:12.710Z,51.95
2019-03-30T08:30:47.331Z,47.33
2019-03-30T08:33:22.509Z,48.23
2019-03-30T08:35:57.143Z,51.45
2019-03-30T08:38:31.706Z,53.50
2019-03-30T08:41:06.087Z,49.53
2019-03-30T08:43:40.549Z,52.67
2019-03-30T08:46:15.014Z,50.33
2019-03-30T08:48:49.383Z,47.35
2019-03-30T08:51:24.538Z,50.05
2019-03-30T08:53:59.108Z,46.58
2019-03-30T08:56:33.736Z,49.30
2019-03-30T08:59:08.376Z,51.20
2019-03-30T09:01:42.751Z,49.10
2019-03-30T09:04:17.368Z,47.43
2019-03-30T09:06:53.118Z,53.45
2019-03-30T09:09:27.745Z,50.08
2019-03-30T09:12:04.110Z,48.85
2019-03-30T09:14:40.293Z,48.23
2019-03-30T09:17:16.574Z,49.80
2019-03-30T09:19:51.125Z,44.70
2019-03-30T09:22:25.997Z,44.98
2019-03-30T09:25:00.655Z,41.88
2019-03-30T09:27:35.201Z,48.58
2019-03-30T09:30:10.938Z,44.95
2019-03-30T09:32:45.403Z,42.27
2019-03-30T09:35:20.853Z,44.30
2019-03-30T09:37:56.006Z,44.65
2019-03-30T09:40:30.791Z,48.40
2019-03-30T09:43:05.403Z,43.58
2019-03-30T09:45:43.078Z,42.78
2019-03-30T09:48:17.581Z,40.80
2019-03-30T09:50:53.127Z,44.18
2019-03-30T09:53:27.524Z,45.05
2019-03-30T09:56:01.875Z,45.35
2019-03-30T09:58:36.339Z,43.08
2019-03-30T10:01:10.874Z,40.20
2019-03-30T10:03:46.656Z,38.30
2019-03-30T10:06:33.908Z,42.85
2019-03-30T10:09:00.512Z,40.12
2019-03-30T10:11:37.562Z,40.20
2019-03-30T10:14:13.121Z,41.42
2019-03-30T10:16:48.796Z,37.35
2019-03-30T10:19:23.577Z,38.05
2019-03-30T10:21:58.120Z,41.05
2019-03-30T10:24:38.400Z,41.65
2019-03-30T10:27:14.509Z,38.85
2019-03-30T10:29:49.350Z,40.88
2019-03-30T10:32:24.270Z,38.17
2019-03-30T10:34:59.318Z,43.28
2019-03-30T10:37:35.610Z,41.65
2019-03-30T10:40:11.330Z,38.38
2019-03-30T10:42:48.036Z,36.90
2019-03-30T10:45:23.582Z,40.52
2019-03-30T10:47:58.160Z,38.25
2019-03-30T10:50:32.953Z,41.50
2019-03-30T10:53:07.800Z,36.93
2019-03-30T10:55:42.873Z,36.15
2019-03-30T10:58:17.469Z,37.58
2019-03-30T11:00:53.384Z,36.70
2019-03-30T11:03:27.720Z,40.30
2019-03-30T11:06:02.175Z,35.05
2019-03-30T11:08:36.612Z,34.40
2019-03-30T11:11:12.053Z,34.18
2019-03-30T11:13:46.447Z,40.48
2019-03-30T11:16:21.080Z,36.23
2019-03-30T11:18:55.443Z,39.50
2019-03-30T11:21:29.814Z,35.28
2019-03-30T11:24:06.717Z,33.48
2019-03-30T11:26:40.715Z,35.17
2019-03-30T11:29:15.251Z,35.45
2019-03-30T11:31:50.017Z,41.37
2019-03-30T11:34:24.546Z,34.73
2019-03-30T11:36:59.289Z,35.10
2019-03-30T11:39:34.007Z,36.68
2019-03-30T11:42:08.611Z,34.20
2019-03-30T11:44:43.180Z,33.92
2019-03-30T11:47:17.732Z,42.00
2019-03-30T11:49:52.366Z,33.02
2019-03-30T11:52:26.871Z,33.13
2019-03-30T11:55:01.504Z,30.95
2019-03-30T11:57:35.973Z,35.92
2019-03-30T12:00:11.240Z,35.95
2019-03-30T12:02:45.952Z,28.62
2019-03-30T12:05:20.433Z,32.63
2019-03-30T12:07:54.929Z,33.48
2019-03-30T12:10:29.500Z,34.13
2019-03-30T12:13:04.054Z,31.57
2019-03-30T12:15:38.767Z,36.00
2019-03-30T12:18:13.395Z,32.58
2019-03-30T12:20:48.075Z,31.25
2019-03-30T12:23:22.716Z,30.70
2019-03-30T12:25:57.313Z,31.85
2019-03-30T12:28:32.159Z,31.55
2019-03-30T12:31:06.848Z,34.88
2019-03-30T12:33:41.302Z,34.27
2019-03-30T12:36:15.991Z,32.10
2019-03-30T12:38:50.550Z,30.08
2019-03-30T12:41:25.337Z,29.15
2019-03-30T12:44:00.012Z,32.70
2019-03-30T12:46:35.037Z,34.33
2019-03-30T12:49:09.727Z,35.17
2019-03-30T12:51:44.374Z,31.07
2019-03-30T12:54:19.054Z,34.83
2019-03-30T12:56:53.642Z,35.92
2019-03-30T12:59:28.482Z,32.50
2019-03-30T13:02:03.047Z,30.23
2019-03-30T13:04:37.518Z,32.23
2019-03-30T13:07:12.031Z,33.78
2019-03-30T13:09:46.519Z,33.13
2019-03-30T13:12:20.961Z,32.95
2019-03-30T13:14:55.732Z,34.35
2019-03-30T13:17:30.212Z,38.23
2019-03-30T13:20:04.855Z,36.90
2019-03-30T13:22:39.354Z,36.28
2019-03-30T13:25:14.180Z,32.95
2019-03-30T13:27:48.897Z,36.68
2019-03-30T13:30:23.633Z,36.93
2019-03-30T13:32:58.145Z,33.48
2019-03-30T13:35:34.291Z,37.15
2019-03-30T13:38:08.541Z,37.20
2019-03-30T13:40:42.997Z,36.65
2019-03-30T13:43:17.600Z,33.08
2019-03-30T13:45:52.107Z,34.53
2019-03-30T13:48:26.494Z,35.13
2019-03-30T13:51:01.235Z,38.20
2019-03-30T13:53:36.657Z,36.30
2019-03-30T13:56:17.047Z,33.58
2019-03-30T13:58:47.510Z,33.75
2019-03-30T14:01:22.146Z,39.40
2019-03-30T14:03:56.471Z,43.40
2019-03-30T14:06:31.523Z,47.25
2019-03-30T14:09:07.095Z,50.65
2019-03-30T14:11:42.063Z,39.85
2019-03-30T14:14:16.477Z,44.50
2019-03-30T14:16:51.428Z,35.73
2019-03-30T14:19:26.364Z,39.42
2019-03-30T14:22:01.229Z,36.90
2019-03-30T14:24:35.525Z,42.10
2019-03-30T14:27:10.177Z,43.65
2019-03-30T14:29:44.621Z,39.60
2019-03-30T14:32:19.336Z,39.27
2019-03-30T14:34:53.925Z,38.53
2019-03-30T14:37:28.252Z,42.27
2019-03-30T14:40:02.837Z,40.70
2019-03-30T14:42:37.480Z,40.52
2019-03-30T14:45:12.996Z,38.55
2019-03-30T14:47:47.961Z,51.13
2019-03-30T14:50:22.768Z,43.52
2019-03-30T14:52:57.372Z,48.75
2019-03-30T14:55:32.206Z,45.12
2019-03-30T14:58:06.759Z,42.30
2019-03-30T15:00:41.502Z,39.05
2019-03-30T15:03:16.122Z,41.15
2019-03-30T15:05:51.085Z,39.75
2019-03-30T15:08:25.698Z,124.82
2019-03-30T15:11:00.281Z,122.05
2019-03-30T15:13:34.590Z,198.80
2019-03-30T15:16:09.629Z,159.35
2019-03-30T15:18:44.362Z,217.00
2019-03-30T15:21:19.134Z,192.13
2019-03-30T15:23:53.586Z,246.43
2019-03-30T15:26:28.229Z,197.02
2019-03-30T15:29:02.946Z,212.32
2019-03-30T15:31:38.002Z,137.57
2019-03-30T15:34:13.028Z,140.77
2019-03-30T15:36:47.829Z,148.28
2019-03-30T15:39:22.469Z,112.32
2019-03-30T15:41:57.067Z,94.22
2019-03-30T15:44:31.768Z,104.47
2019-03-30T15:47:06.525Z,92.17
2019-03-30T15:49:40.962Z,93.97
2019-03-30T15:52:15.648Z,63.38
2019-03-30T15:54:50.389Z,80.35
2019-03-30T15:57:25.486Z,75.62
2019-03-30T16:00:00.143Z,66.15
2019-03-30T16:02:35.383Z,59.77
2019-03-30T16:05:10.644Z,75.47
2019-03-30T16:07:45.161Z,56.05
2019-03-30T16:10:19.815Z,78.50
2019-03-30T16:12:54.595Z,73.60
2019-03-30T16:15:28.992Z,64.20
2019-03-30T16:18:03.558Z,68.17
2019-03-30T16:20:38.438Z,72.65
2019-03-30T16:23:13.189Z,67.05
2019-03-30T16:25:47.931Z,58.30
2019-03-30T16:28:22.364Z,73.85
2019-03-30T16:30:56.818Z,63.00
2019-03-30T16:33:31.203Z,60.38
2019-03-30T16:36:05.880Z,59.90
2019-03-30T16:38:40.525Z,53.73
2019-03-30T16:41:15.208Z,50.12
2019-03-30T16:43:49.678Z,55.67
2019-03-30T16:46:24.446Z,46.30
2019-03-30T16:48:58.965Z,56.60
2019-03-30T16:51:33.458Z,55.55
2019-03-30T16:54:08.441Z,50.85
2019-03-30T16:56:42.910Z,45.35
2019-03-30T16:59:17.809Z,49.48
2019-03-30T17:01:52.318Z,46.50
2019-03-30T17:04:29.525Z,53.05
2019-03-30T17:07:03.542Z,42.10
2019-03-30T17:09:37.996Z,48.40
2019-03-30T17:12:12.589Z,40.67
2019-03-30T17:14:47.118Z,46.23
2019-03-30T17:17:22.714Z,43.13
2019-03-30T17:19:57.301Z,38.02
2019-03-30T17:22:31.932Z,45.98
2019-03-30T17:25:06.638Z,40.75
2019-03-30T17:27:41.412Z,37.48
2019-03-30T17:30:15.992Z,43.33
2019-03-30T17:32:50.762Z,37.45
2019-03-30T17:35:25.246Z,40.48
2019-03-30T17:37:59.727Z,36.65
2019-03-30T17:40:35.580Z,33.55
2019-03-30T17:43:10.193Z,40.00
2019-03-30T17:45:44.720Z,38.92
2019-03-30T17:48:19.334Z,35.78
2019-03-30T17:50:53.762Z,36.40
2019-03-30T17:53:28.174Z,35.52
2019-03-30T17:56:02.830Z,29.45
2019-03-30T17:58:37.372Z,31.27
2019-03-30T18:01:15.475Z,36.83
2019-03-30T18:03:48.460Z,33.48
2019-03-30T18:06:22.915Z,28.75
2019-03-30T18:08:57.377Z,38.00
2019-03-30T18:11:31.929Z,25.77
2019-03-30T18:14:06.554Z,33.18
2019-03-30T18:16:42.229Z,29.25
2019-03-30T18:19:16.770Z,32.50
2019-03-30T18:21:51.289Z,28.85
2019-03-30T18:24:25.848Z,32.65
2019-03-30T18:27:01.274Z,29.87
2019-03-30T18:29:35.923Z,29.18
2019-03-30T18:32:11.197Z,31.37
2019-03-30T18:34:46.968Z,26.12
2019-03-30T18:37:21.989Z,28.05
2019-03-30T18:39:56.895Z,28.15
2019-03-30T18:42:32.671Z,28.12
2019-03-30T18:45:08.953Z,27.85
2019-03-30T18:47:43.866Z,29.07
2019-03-30T18:50:18.676Z,28.98
2019-03-30T18:52:53.423Z,28.73
2019-03-30T18:55:28.369Z,25.43
2019-03-30T18:58:03.243Z,30.43
2019-03-30T19:00:37.605Z,28.57
2019-03-30T19:03:12.121Z,29.52
2019-03-30T19:05:46.721Z,24.35
2019-03-30T19:08:21.473Z,24.50
2019-03-30T19:10:55.874Z,24.05
2019-03-30T19:13:30.249Z,26.68
2019-03-30T19:16:05.028Z,28.95
2019-03-30T19:18:39.687Z,31.42
2019-03-30T19:21:14.265Z,27.10
2019-03-30T19:23:48.763Z,21.35
2019-03-30T19:26:23.157Z,25.43
2019-03-30T19:28:57.964Z,22.30
2019-03-30T19:31:32.310Z,21.37
2019-03-30T19:34:06.953Z,24.40
2019-03-30T19:36:41.504Z,23.95
2019-03-30T19:39:16.029Z,23.02
2019-03-30T19:41:50.332Z,23.05
2019-03-30T19:44:24.721Z,20.52
2019-03-30T19:46:59.348Z,21.35
2019-03-30T19:49:35.213Z,20.32
2019-03-30T19:52:10.124Z,23.60
2019-03-30T19:54:44.652Z,20.30
2019-03-30T19:57:19.371Z,22.67
2019-03-30T19:59:54.346Z,25.00
2019-03-30T20:02:28.790Z,22.27
2019-03-30T20:05:03.242Z,25.40
2019-03-30T20:07:37.943Z,22.82
2019-03-30T20:10:12.522Z,22.52
2019-03-30T20:12:47.059Z,19.98
2019-03-30T20:15:21.693Z,21.55
2019-03-30T20:17:56.529Z,21.65
2019-03-30T20:20:31.161Z,20.40
2019-03-30T20:23:05.894Z,21.12
2019-03-30T20:25:40.463Z,20.10
2019-03-30T20:28:14.972Z,20.70
2019-03-30T20:30:49.627Z,20.32
2019-03-30T20:33:24.315Z,23.12
2019-03-30T20:35:59.807Z,18.77
2019-03-30T20:38:34.368Z,21.07
2019-03-30T20:41:09.003Z,18.17
2019-03-30T20:43:43.945Z,20.20
2019-03-30T20:46:18.631Z,21.77
2019-03-30T20:48:53.115Z,18.70
2019-03-30T20:51:27.468Z,21.02
2019-03-30T20:54:02.024Z,18.30
2019-03-30T20:56:36.608Z,17.52
2019-03-30T20:59:11.110Z,19.37
2019-03-30T21:01:45.811Z,18.05
2019-03-30T21:04:20.341Z,22.13
2019-03-30T21:06:55.152Z,21.40
2019-03-30T21:09:29.745Z,18.20
2019-03-30T21:12:04.332Z,19.27
2019-03-30T21:14:38.888Z,18.37
2019-03-30T21:17:13.464Z,16.32
2019-03-30T21:19:47.825Z,17.10
2019-03-30T21:22:22.507Z,17.27
2019-03-30T21:24:57.125Z,15.95
2019-03-30T21:27:31.971Z,19.65
2019-03-30T21:30:07.220Z,16.90
2019-03-30T21:32:42.561Z,18.92
2019-03-30T21:35:17.197Z,18.12
2019-03-30T21:37:51.464Z,16.87
2019-03-30T21:40:26.116Z,17.27
2019-03-30T21:43:00.510Z,17.95
2019-03-30T21:45:35.269Z,19.32
2019-03-30T21:48:09.959Z,21.50
2019-03-30T21:50:44.370Z,15.72
2019-03-30T21:53:18.842Z,17.15
2019-03-30T21:55:53.823Z,17.42
2019-03-30T21:58:28.147Z,18.17
2019-03-30T22:01:03.071Z,18.67
2019-03-30T22:03:37.624Z,14.53
2019-03-30T22:06:12.586Z,18.17
2019-03-30T22:08:47.527Z,18.77
2019-03-30T22:11:21.841Z,17.65
2019-03-30T22:13:56.463Z,17.82
2019-03-30T22:16:32.508Z,16.37
2019-03-30T22:19:07.376Z,17.27
2019-03-30T22:21:41.803Z,15.05
2019-03-30T22:24:16.427Z,14.87
2019-03-30T22:26:51.072Z,15.80
2019-03-30T22:29:25.446Z,17.20
2019-03-30T22:31:59.926Z,18.32
2019-03-30T22:34:35.385Z,15.98
2019-03-30T22:37:13.056Z,16.02
2019-03-30T22:39:47.622Z,17.45
2019-03-30T22:42:22.382Z,17.23
2019-03-30T22:44:56.890Z,17.20
2019-03-30T22:47:31.481Z,18.25
2019-03-30T22:50:06.186Z,13.68
2019-03-30T22:52:40.766Z,17.75
2019-03-30T22:55:15.445Z,17.92
2019-03-30T22:57:50.956Z,17.05
2019-03-30T23:00:56.630Z,18.95
2019-03-30T23:03:31.216Z,17.05
2019-03-30T23:06:06.000Z,17.27
2019-03-30T23:08:40.754Z,17.25
2019-03-30T23:11:15.126Z,16.25
2019-03-30T23:13:49.737Z,17.00
2019-03-30T23:16:24.175Z,16.07
2019-03-30T23:18:58.555Z,17.10
2019-03-30T23:21:33.713Z,14.38
2019-03-30T23:24:08.415Z,16.48
2019-03-30T23:26:43.102Z,14.15
2019-03-30T23:29:17.579Z,18.98
2019-03-30T23:31:51.914Z,16.23
2019-03-30T23:34:26.542Z,16.93
2019-03-30T23:37:01.263Z,16.12
2019-03-30T23:39:35.749Z,14.70
2019-03-30T23:42:10.352Z,14.70
2019-03-30T23:44:44.924Z,16.70
2019-03-30T23:47:19.400Z,15.65
2019-03-30T23:49:54.000Z,16.97
2019-03-30T23:52:28.470Z,14.80
2019-03-30T23:55:02.890Z,15.58
2019-03-30T23:57:37.474Z,15.00
